METAR Data
IDs: Format: Raw Decoded Include TAF

Data at: 0153 UTC 01 Nov 2020

K4R5 010135Z AUTO 28016G24KT 10SM BKN039 BKN046 OVC060 05/M02 A2970 RMK AO2 T00481025
K4R5 010115Z AUTO 28012G22KT 10SM OVC050 05/M02 A2969 RMK AO2 T00521025
K4R5 010055Z AUTO 28014G26KT 10SM OVC050 06/M03 A2968 RMK AO2 T00561028
K4R5 010035Z AUTO 28017G27KT 10SM OVC050 06/M02 A2968 RMK AO2 T00601023
K4R5 010015Z AUTO 28017G28KT 10SM BKN050 OVC060 06/M02 A2967 RMK AO2 T00611022
K4R5 312355Z AUTO 27013G23KT 10SM OVC048 06/M01 A2966 RMK AO2 T00611015
K4R5 312335Z AUTO 27018G27KT 10SM SCT037 SCT045 OVC050 07/M01 A2965 RMK AO2 T00651009
K4R5 312315Z AUTO 27012G32KT 10SM BKN034 OVC043 07/01 A2964 RMK AO2 T00730005
K4R5 312255Z AUTO 25009G16KT 10SM SCT036 OVC045 09/03 A2961 RMK AO2 LTG DSNT NE T00880025
K4R5 312235Z AUTO 25008G15KT 10SM BKN036 OVC044 09/03 A2962 RMK AO2 T00900028
K4R5 312215Z AUTO 24007KT 10SM OVC044 09/03 A2961 RMK AO2 T00900028
K4R5 312155Z AUTO 23005KT 10SM BKN037 OVC044 09/03 A2961 RMK AO2 LTG DSNT NE T00900026
K4R5 312135Z AUTO 23008KT 190V250 10SM OVC035 09/03 A2961 RMK AO2 T00920025
K4R5 312115Z AUTO 23007KT 200V260 10SM OVC037 09/02 A2962 RMK AO2 T00910024
K4R5 312055Z AUTO 23010G17KT 210V280 10SM OVC037 09/02 A2962 RMK AO2 T00940022
K4R5 312035Z AUTO 23008G16KT 10SM OVC037 09/02 A2962 RMK AO2 T00940022
K4R5 312015Z AUTO 22010G19KT 200V270 10SM OVC037 10/02 A2962 RMK AO2 T00950020
K4R5 311955Z AUTO 22014G22KT 10SM OVC037 10/02 A2961 RMK AO2 T00960018
K4R5 311935Z AUTO 22012G18KT 170V240 10SM OVC039 10/02 A2961 RMK AO2 T00960017
K4R5 311915Z AUTO 21010G20KT 160V240 10SM OVC039 10/02 A2961 RMK AO2 T00950015
K4R5 311855Z AUTO 20008G20KT 180V260 10SM BKN039 OVC070 09/01 A2962 RMK AO2 T00920011
K4R5 311835Z AUTO 20008G15KT 150V240 10SM SCT041 OVC070 09/01 A2963 RMK AO2 T00920012
K4R5 311815Z AUTO 22007G17KT 180V260 10SM SCT041 BKN070 09/01 A2964 RMK AO2 T00900007
K4R5 311755Z AUTO 20010G18KT 170V240 10SM SCT043 SCT110 09/01 A2966 RMK AO2 T00900005
K4R5 311735Z AUTO 22014G25KT 10SM SCT043 SCT110 09/00 A2967 RMK AO2 T00900000
K4R5 311715Z AUTO 22011G20KT 190V250 10SM CLR 09/00 A2968 RMK AO2 T00910001
K4R5 311655Z AUTO 22010G17KT 180V240 10SM CLR 08/00 A2969 RMK AO2 T00830001
K4R5 311635Z AUTO 23009G17KT 200V270 10SM CLR 08/00 A2970 RMK AO2 T00800000
K4R5 311615Z AUTO 20008G15KT 160V230 10SM CLR 07/00 A2968 RMK AO2 T00671005
K4R5 311555Z AUTO 19008G14KT 160V220 10SM CLR 06/M01 A2970 RMK AO2 T00571011
K4R5 311535Z AUTO 17006KT 10SM SCT120 05/M01 A2972 RMK AO2 T00531015
K4R5 311515Z AUTO 18008G14KT 150V210 10SM SCT120 05/M02 A2974 RMK AO2 T00481016
K4R5 311455Z AUTO 20009G15KT 10SM SCT120 05/M02 A2976 RMK AO2 T00451020
K4R5 311435Z AUTO 19009G17KT 150V230 10SM SCT120 04/M02 A2978 RMK AO2 T00431022
K4R5 311415Z AUTO 19007G17KT 130V220 10SM SCT120 04/M02 A2977 RMK AO2 T00411025
K4R5 311355Z AUTO 19009G17KT 10SM CLR 04/M03 A2978 RMK AO2 T00401028
K4R5 311335Z AUTO 18010G17KT 150V220 10SM CLR 04/M03 A2980 RMK AO2 T00351030
K4R5 311315Z AUTO 19008G14KT 160V220 10SM CLR 03/M03 A2983 RMK AO2 T00301033
K4R5 311255Z AUTO 19007G15KT 160V220 10SM CLR 03/M03 A2984 RMK AO2 T00281035
K4R5 311235Z AUTO 19007KT 150V230 10SM CLR 03/M04 A2986 RMK AO2 T00251038
K4R5 311215Z AUTO 17008KT 10SM CLR 02/M04 A2987 RMK AO2 T00231040
K4R5 311155Z AUTO 17007KT 130V220 10SM CLR 02/M04 A2990 RMK AO2 T00181045
K4R5 311135Z AUTO 17007KT 10SM CLR 02/M05 A2991 RMK AO2 T00161048
K4R5 311115Z AUTO 17008KT 10SM CLR 02/M05 A2992 RMK AO2 T00151050
K4R5 311055Z AUTO 16008KT 10SM CLR 02/M05 A2994 RMK AO2 T00151051
K4R5 311035Z AUTO 17008KT 140V200 10SM CLR 01/M05 A2995 RMK AO2 T00141051
K4R5 311015Z AUTO 15007KT 120V190 10SM CLR 01/M05 A2997 RMK AO2 T00121051
K4R5 310955Z AUTO 17007KT 140V200 10SM CLR 01/M05 A2998 RMK AO2 T00131050
K4R5 310935Z AUTO 16007KT 140V210 10SM CLR 01/M05 A3000 RMK AO2 T00101050
K4R5 310915Z AUTO 17005KT 10SM CLR 01/M05 A3002 RMK AO2 T00111048
K4R5 310855Z AUTO 16005KT 10SM SCT050 01/M05 A3005 RMK AO2 T00091050
K4R5 310835Z AUTO 16003KT 10SM SCT050 01/M05 A3008 RMK AO2 T00101050
K4R5 310815Z AUTO 17006KT 10SM CLR 01/M05 A3008 RMK AO2 T00111047
K4R5 310755Z AUTO 18006KT 10SM CLR 01/M05 A3008 RMK AO2 T00111046
K4R5 310735Z AUTO 18005KT 10SM CLR 01/M04 A3009 RMK AO2 T00091045
K4R5 310715Z AUTO 17005KT 10SM CLR 01/M04 A3009 RMK AO2 T00071042
K4R5 310655Z AUTO 16004KT 10SM CLR 01/M04 A3010 RMK AO2 T00081040
K4R5 310635Z AUTO 16005KT 10SM CLR 01/M04 A3010 RMK AO2 T00101041
K4R5 310615Z AUTO 16003KT 10SM CLR 01/M04 A3011 RMK AO2 T00061038
K4R5 310555Z AUTO 16005KT 10SM CLR 01/M04 A3012 RMK AO2 T00051037
K4R5 310535Z AUTO 17003KT 10SM CLR 01/M04 A3013 RMK AO2 T00071038
K4R5 310515Z AUTO 18005KT 10SM CLR 01/M04 A3015 RMK AO2 T00051036
K4R5 310455Z AUTO 15003KT 10SM CLR 00/M03 A3015 RMK AO2 T00001033
K4R5 310435Z AUTO 17003KT 10SM CLR 00/M03 A3016 RMK AO2 T00011033
K4R5 310415Z AUTO 18003KT 10SM CLR M01/M03 A3017 RMK AO2 T10061032
K4R5 310355Z AUTO 00000KT 10SM CLR M01/M03 A3017 RMK AO2 T10071033
K4R5 310335Z AUTO 00000KT 10SM CLR 00/M03 A3017 RMK AO2 T00021026
K4R5 310315Z AUTO 00000KT 10SM CLR 00/M03 A3017 RMK AO2 T00001028
K4R5 310255Z AUTO 00000KT 10SM CLR 00/M03 A3017 RMK AO2 T00001029
K4R5 310235Z AUTO 00000KT 10SM CLR 01/M03 A3017 RMK AO2 T00081028
K4R5 310215Z AUTO 00000KT 10SM CLR 01/M02 A3017 RMK AO2 T00091025
K4R5 310155Z AUTO 00000KT 10SM CLR 01/M03 A3017 RMK AO2 T00071029
K4R5 310135Z AUTO 00000KT 10SM CLR 00/M03 A3018 RMK AO2 T00041035
K4R5 310115Z AUTO 00000KT 10SM CLR M03/M04 A3019 RMK AO2 T10281042
K4R5 310055Z AUTO 00000KT 10SM CLR M03/M04 A3020 RMK AO2 T10271045
K4R5 310035Z AUTO 00000KT 10SM CLR M03/M05 A3020 RMK AO2 T10261046
K4R5 310015Z AUTO 00000KT 10SM CLR M02/M05 A3020 RMK AO2 T10231046
K4R5 302355Z AUTO 00000KT 10SM CLR M02/M05 A3020 RMK AO2 T10211047
K4R5 302335Z AUTO 00000KT 10SM CLR M02/M05 A3020 RMK AO2 T10161049
K4R5 302315Z AUTO 00000KT 10SM CLR M01/M05 A3020 RMK AO2 T10091050
K4R5 302255Z AUTO 00000KT 10SM SCT110 01/M05 A3020 RMK AO2 T00061047
K4R5 302235Z AUTO 00000KT 10SM CLR 03/M04 A3020 RMK AO2 T00331045
K4R5 302215Z AUTO 16003KT 10SM CLR 04/M04 A3021 RMK AO2 T00431045
K4R5 302155Z AUTO 00000KT 10SM CLR 05/M05 A3021 RMK AO2 T00511051
K4R5 302135Z AUTO 23003KT 10SM CLR 05/M05 A3022 RMK AO2 T00531053
K4R5 302115Z AUTO 24003KT 10SM CLR 05/M05 A3022 RMK AO2 T00541055
K4R5 302055Z AUTO 22004KT 10SM CLR 05/M06 A3022 RMK AO2 T00541056
K4R5 302035Z AUTO 00000KT 10SM CLR 05/M05 A3022 RMK AO2 T00541054
K4R5 302015Z AUTO 00000KT 10SM CLR 05/M05 A3023 RMK AO2 T00521054
K4R5 301955Z AUTO 13004KT 10SM CLR 05/M05 A3024 RMK AO2 T00481050
K4R5 301935Z AUTO 00000KT 10SM CLR 05/M05 A3024 RMK AO2 T00481052
K4R5 301915Z AUTO 10004KT 10SM CLR 04/M06 A3024 RMK AO2 T00391057
K4R5 301855Z AUTO 16004KT 10SM CLR 04/M05 A3025 RMK AO2 T00411055
K4R5 301835Z AUTO 20004KT 10SM CLR 04/M06 A3025 RMK AO2 T00391057
K4R5 301815Z AUTO 15004KT 10SM CLR 04/M05 A3025 RMK AO2 T00351053
K4R5 301755Z AUTO 19005KT 10SM CLR 04/M06 A3026 RMK AO2 T00361063
K4R5 301735Z AUTO 00000KT 10SM CLR 03/M06 A3025 RMK AO2 T00291062
K4R5 301715Z AUTO 19004KT 10SM CLR 03/M06 A3026 RMK AO2 T00311059
K4R5 301655Z AUTO 30003KT 10SM CLR 03/M06 A3028 RMK AO2 T00261059
K4R5 301635Z AUTO 29003KT 10SM CLR 02/M06 A3027 RMK AO2 T00211059
K4R5 301615Z AUTO 00000KT 10SM CLR 02/M06 A3027 RMK AO2 T00171058
K4R5 301555Z AUTO 26003KT 10SM CLR 02/M06 A3026 RMK AO2 T00201061
K4R5 301535Z AUTO 28005KT 10SM CLR 02/M05 A3026 RMK AO2 T00151054
K4R5 301515Z AUTO 28005KT 10SM CLR 01/M05 A3026 RMK AO2 T00131048
K4R5 301455Z AUTO 25005KT 10SM CLR 01/M05 A3026 RMK AO2 T00091048
K4R5 301435Z AUTO 26004KT 10SM CLR 00/M05 A3026 RMK AO2 T00031050
K4R5 301415Z AUTO 00000KT 10SM SCT048 00/M05 A3025 RMK AO2 T00001051
K4R5 301355Z AUTO 18003KT 10SM BKN048 M01/M06 A3025 RMK AO2 T10101059